sensor_id;sensor_type;location;lat;lon;timestamp;pressure;altitude;pressure_sealevel;temperature;humidity
19596;BME280;9945;46.010;8.946;2023-05-12T00:01:11;96835.16;;;15.50;100.00
19596;BME280;9945;46.010;8.946;2023-05-12T00:03:38;96842.25;;;15.64;97.69
19596;BME280;9945;46.010;8.946;2023-05-12T00:06:05;96840.59;;;15.63;97.26
19596;BME280;9945;46.010;8.946;2023-05-12T00:08:34;96838.38;;;15.67;99.74
19596;BME280;9945;46.010;8.946;2023-05-12T00:11:01;96832.81;;;15.55;100.00
19596;BME280;9945;46.010;8.946;2023-05-12T00:13:28;96835.31;;;15.63;100.00
19596;BME280;9945;46.010;8.946;2023-05-12T00:15:55;96832.97;;;15.75;100.00
19596;BME280;9945;46.010;8.946;2023-05-12T00:18:23;96831.22;;;15.82;100.00
19596;BME280;9945;46.010;8.946;2023-05-12T00:20:50;96834.28;;;15.85;100.00
19596;BME280;9945;46.010;8.946;2023-05-12T00:23:18;96833.09;;;15.88;100.00
19596;BME280;9945;46.010;8.946;2023-05-12T00:25:46;96827.63;;;15.89;100.00
19596;BME280;9945;46.010;8.946;2023-05-12T00:28:13;96821.53;;;15.89;100.00
19596;BME280;9945;46.010;8.946;2023-05-12T00:30:40;96829.38;;;15.82;100.00
19596;BME280;9945;46.010;8.946;2023-05-12T00:33:07;96833.53;;;15.92;100.00
19596;BME280;9945;46.010;8.946;2023-05-12T00:35:34;96828.69;;;15.95;98.00
19596;BME280;9945;46.010;8.946;2023-05-12T00:38:01;96828.38;;;15.83;100.00
19596;BME280;9945;46.010;8.946;2023-05-12T00:40:28;96828.81;;;15.66;100.00
19596;BME280;9945;46.010;8.946;2023-05-12T00:42:56;96825.59;;;15.64;100.00
19596;BME280;9945;46.010;8.946;2023-05-12T00:45:22;96823.88;;;15.56;100.00
19596;BME280;9945;46.010;8.946;2023-05-12T00:47:50;96827.53;;;15.40;100.00
19596;BME280;9945;46.010;8.946;2023-05-12T00:50:18;96828.09;;;15.36;100.00
19596;BME280;9945;46.010;8.946;2023-05-12T00:52:45;96820.38;;;15.34;100.00
19596;BME280;9945;46.010;8.946;2023-05-12T00:55:12;96819.31;;;15.29;100.00
19596;BME280;9945;46.010;8.946;2023-05-12T00:57:39;96817.78;;;15.41;100.00
19596;BME280;9945;46.010;8.946;2023-05-12T01:00:09;96819.97;;;15.16;100.00
19596;BME280;9945;46.010;8.946;2023-05-12T01:02:36;96818.69;;;15.27;100.00
19596;BME280;9945;46.010;8.946;2023-05-12T01:05:03;96812.34;;;15.42;100.00
19596;BME280;9945;46.010;8.946;2023-05-12T01:07:31;96814.34;;;15.40;100.00
19596;BME280;9945;46.010;8.946;2023-05-12T01:09:59;96810.06;;;15.54;100.00
19596;BME280;9945;46.010;8.946;2023-05-12T01:12:26;96817.44;;;15.44;100.00
19596;BME280;9945;46.010;8.946;2023-05-12T01:14:54;96820.88;;;15.44;100.00
19596;BME280;9945;46.010;8.946;2023-05-12T01:17:27;96814.81;;;15.65;100.00
19596;BME280;9945;46.010;8.946;2023-05-12T01:19:57;96812.25;;;15.72;99.50
19596;BME280;9945;46.010;8.946;2023-05-12T01:22:27;96809.91;;;15.83;99.21
19596;BME280;9945;46.010;8.946;2023-05-12T01:24:58;96810.97;;;15.46;100.00
19596;BME280;9945;46.010;8.946;2023-05-12T01:27:27;96801.59;;;15.44;100.00
19596;BME280;9945;46.010;8.946;2023-05-12T01:29:57;96805.81;;;15.38;100.00
19596;BME280;9945;46.010;8.946;2023-05-12T01:32:24;96805.31;;;15.49;100.00
19596;BME280;9945;46.010;8.946;2023-05-12T01:34:51;96806.50;;;15.26;100.00
19596;BME280;9945;46.010;8.946;2023-05-12T01:37:18;96805.31;;;15.28;100.00
19596;BME280;9945;46.010;8.946;2023-05-12T01:39:45;96806.50;;;15.26;100.00
19596;BME280;9945;46.010;8.946;2023-05-12T01:42:12;96810.75;;;15.05;100.00
19596;BME280;9945;46.010;8.946;2023-05-12T01:44:40;96803.94;;;14.96;100.00
19596;BME280;9945;46.010;8.946;2023-05-12T01:47:07;96803.22;;;15.24;100.00
19596;BME280;9945;46.010;8.946;2023-05-12T01:49:35;96807.25;;;15.20;100.00
19596;BME280;9945;46.010;8.946;2023-05-12T01:52:02;96807.81;;;15.36;100.00
19596;BME280;9945;46.010;8.946;2023-05-12T01:54:29;96804.25;;;15.44;100.00
19596;BME280;9945;46.010;8.946;2023-05-12T01:56:56;96798.91;;;15.37;100.00
19596;BME280;9945;46.010;8.946;2023-05-12T01:59:23;96807.25;;;15.41;100.00
19596;BME280;9945;46.010;8.946;2023-05-12T02:01:51;96809.16;;;15.47;100.00
19596;BME280;9945;46.010;8.946;2023-05-12T02:04:18;96803.13;;;15.53;100.00
19596;BME280;9945;46.010;8.946;2023-05-12T02:06:45;96808.34;;;15.46;100.00
19596;BME280;9945;46.010;8.946;2023-05-12T02:09:12;96806.41;;;15.55;100.00
19596;BME280;9945;46.010;8.946;2023-05-12T02:11:39;96811.69;;;15.55;100.00
19596;BME280;9945;46.010;8.946;2023-05-12T02:14:06;96806.19;;;15.35;100.00
19596;BME280;9945;46.010;8.946;2023-05-12T02:16:33;96803.91;;;15.32;100.00
19596;BME280;9945;46.010;8.946;2023-05-12T02:19:01;96814.03;;;15.50;100.00
19596;BME280;9945;46.010;8.946;2023-05-12T02:21:28;96809.81;;;15.34;100.00
19596;BME280;9945;46.010;8.946;2023-05-12T02:23:55;96802.22;;;15.25;100.00
19596;BME280;9945;46.010;8.946;2023-05-12T02:26:22;96810.59;;;15.28;100.00
19596;BME280;9945;46.010;8.946;2023-05-12T02:28:49;96804.34;;;15.14;100.00
19596;BME280;9945;46.010;8.946;2023-05-12T02:31:16;96806.59;;;14.96;100.00
19596;BME280;9945;46.010;8.946;2023-05-12T02:33:43;96812.84;;;14.95;100.00
19596;BME280;9945;46.010;8.946;2023-05-12T02:36:11;96812.56;;;15.05;100.00
19596;BME280;9945;46.010;8.946;2023-05-12T02:38:38;96808.69;;;14.86;100.00
19596;BME280;9945;46.010;8.946;2023-05-12T02:41:05;96813.59;;;14.74;100.00
19596;BME280;9945;46.010;8.946;2023-05-12T02:43:32;96806.16;;;14.63;100.00
19596;BME280;9945;46.010;8.946;2023-05-12T02:45:59;96809.97;;;14.75;100.00
19596;BME280;9945;46.010;8.946;2023-05-12T02:48:26;96800.78;;;14.86;100.00
19596;BME280;9945;46.010;8.946;2023-05-12T02:50:52;96800.69;;;14.94;100.00
19596;BME280;9945;46.010;8.946;2023-05-12T02:53:21;96796.81;;;15.11;100.00
19596;BME280;9945;46.010;8.946;2023-05-12T02:55:47;96794.00;;;15.13;100.00
19596;BME280;9945;46.010;8.946;2023-05-12T02:58:15;96796.25;;;15.16;100.00
19596;BME280;9945;46.010;8.946;2023-05-12T03:00:41;96795.31;;;15.24;100.00
19596;BME280;9945;46.010;8.946;2023-05-12T03:03:08;96796.00;;;15.32;100.00
19596;BME280;9945;46.010;8.946;2023-05-12T03:05:35;96801.97;;;15.41;100.00
19596;BME280;9945;46.010;8.946;2023-05-12T03:08:02;96791.63;;;15.39;100.00
19596;BME280;9945;46.010;8.946;2023-05-12T03:10:30;96797.31;;;15.43;100.00
19596;BME280;9945;46.010;8.946;2023-05-12T03:12:57;96793.63;;;15.37;100.00
19596;BME280;9945;46.010;8.946;2023-05-12T03:15:24;96792.22;;;15.41;100.00
19596;BME280;9945;46.010;8.946;2023-05-12T03:17:50;96789.47;;;15.49;100.00
19596;BME280;9945;46.010;8.946;2023-05-12T03:20:17;96791.19;;;15.57;100.00
19596;BME280;9945;46.010;8.946;2023-05-12T03:22:45;96788.19;;;15.60;100.00
19596;BME280;9945;46.010;8.946;2023-05-12T03:25:11;96790.91;;;15.52;100.00
19596;BME280;9945;46.010;8.946;2023-05-12T03:27:40;96787.38;;;15.60;100.00
19596;BME280;9945;46.010;8.946;2023-05-12T03:30:07;96795.47;;;15.58;100.00
19596;BME280;9945;46.010;8.946;2023-05-12T03:32:35;96787.41;;;15.66;100.00
19596;BME280;9945;46.010;8.946;2023-05-12T03:35:04;96784.41;;;15.69;100.00
19596;BME280;9945;46.010;8.946;2023-05-12T03:37:30;96783.03;;;15.73;100.00
19596;BME280;9945;46.010;8.946;2023-05-12T03:39:57;96788.69;;;15.70;100.00
19596;BME280;9945;46.010;8.946;2023-05-12T03:42:24;96784.22;;;15.71;100.00
19596;BME280;9945;46.010;8.946;2023-05-12T03:44:52;96782.94;;;15.67;100.00
19596;BME280;9945;46.010;8.946;2023-05-12T03:47:19;96784.59;;;15.68;100.00
19596;BME280;9945;46.010;8.946;2023-05-12T03:49:46;96783.78;;;15.67;100.00
19596;BME280;9945;46.010;8.946;2023-05-12T03:52:13;96784.59;;;15.68;100.00
19596;BME280;9945;46.010;8.946;2023-05-12T03:54:39;96778.94;;;15.71;100.00
19596;BME280;9945;46.010;8.946;2023-05-12T03:57:06;96777.84;;;15.65;100.00
19596;BME280;9945;46.010;8.946;2023-05-12T03:59:33;96778.25;;;15.62;100.00
19596;BME280;9945;46.010;8.946;2023-05-12T04:02:01;96779.50;;;15.66;100.00
19596;BME280;9945;46.010;8.946;2023-05-12T04:04:28;96776.38;;;15.56;100.00
19596;BME280;9945;46.010;8.946;2023-05-12T04:06:55;96782.34;;;15.65;100.00
19596;BME280;9945;46.010;8.946;2023-05-12T04:09:22;96775.63;;;15.62;100.00
19596;BME280;9945;46.010;8.946;2023-05-12T04:11:49;96779.91;;;15.63;100.00
19596;BME280;9945;46.010;8.946;2023-05-12T04:14:15;96778.91;;;15.64;100.00
19596;BME280;9945;46.010;8.946;2023-05-12T04:16:42;96784.97;;;15.43;100.00
19596;BME280;9945;46.010;8.946;2023-05-12T04:19:10;96783.19;;;15.50;100.00
19596;BME280;9945;46.010;8.946;2023-05-12T04:21:37;96773.53;;;15.58;100.00
19596;BME280;9945;46.010;8.946;2023-05-12T04:24:04;96779.31;;;15.68;100.00
19596;BME280;9945;46.010;8.946;2023-05-12T04:26:31;96777.50;;;15.68;99.96
19596;BME280;9945;46.010;8.946;2023-05-12T04:28:58;96776.84;;;15.66;100.00
19596;BME280;9945;46.010;8.946;2023-05-12T04:31:25;96784.78;;;15.66;100.00
19596;BME280;9945;46.010;8.946;2023-05-12T04:33:51;96782.59;;;15.70;100.00
19596;BME280;9945;46.010;8.946;2023-05-12T04:36:21;96784.50;;;15.55;100.00
19596;BME280;9945;46.010;8.946;2023-05-12T04:38:48;96800.56;;;15.60;100.00
19596;BME280;9945;46.010;8.946;2023-05-12T04:41:15;96797.59;;;15.69;100.00
19596;BME280;9945;46.010;8.946;2023-05-12T04:43:42;96810.22;;;15.74;100.00
19596;BME280;9945;46.010;8.946;2023-05-12T04:46:09;96806.19;;;15.78;100.00
19596;BME280;9945;46.010;8.946;2023-05-12T04:48:36;96816.72;;;15.71;100.00
19596;BME280;9945;46.010;8.946;2023-05-12T04:51:06;96811.44;;;15.71;100.00
19596;BME280;9945;46.010;8.946;2023-05-12T04:53:34;96816.44;;;15.66;100.00
19596;BME280;9945;46.010;8.946;2023-05-12T04:56:01;96818.94;;;15.53;100.00
19596;BME280;9945;46.010;8.946;2023-05-12T04:58:28;96824.19;;;15.68;100.00
19596;BME280;9945;46.010;8.946;2023-05-12T05:00:55;96821.00;;;15.72;100.00
19596;BME280;9945;46.010;8.946;2023-05-12T05:03:22;96820.16;;;15.72;100.00
19596;BME280;9945;46.010;8.946;2023-05-12T05:05:49;96819.16;;;15.73;100.00
19596;BME280;9945;46.010;8.946;2023-05-12T05:08:16;96826.44;;;15.71;100.00
19596;BME280;9945;46.010;8.946;2023-05-12T05:10:44;96826.88;;;15.74;100.00
19596;BME280;9945;46.010;8.946;2023-05-12T05:13:11;96815.63;;;15.66;100.00
19596;BME280;9945;46.010;8.946;2023-05-12T05:15:37;96819.53;;;15.70;100.00
19596;BME280;9945;46.010;8.946;2023-05-12T05:18:04;96817.94;;;15.75;100.00
19596;BME280;9945;46.010;8.946;2023-05-12T05:20:31;96820.03;;;15.80;100.00
19596;BME280;9945;46.010;8.946;2023-05-12T05:22:58;96820.59;;;15.75;100.00
19596;BME280;9945;46.010;8.946;2023-05-12T05:25:25;96817.81;;;15.83;100.00
19596;BME280;9945;46.010;8.946;2023-05-12T05:27:54;96823.38;;;15.67;99.02
19596;BME280;9945;46.010;8.946;2023-05-12T05:30:21;96822.22;;;15.76;99.09
19596;BME280;9945;46.010;8.946;2023-05-12T05:32:48;96826.75;;;15.82;100.00
19596;BME280;9945;46.010;8.946;2023-05-12T05:35:15;96827.09;;;15.73;100.00
19596;BME280;9945;46.010;8.946;2023-05-12T05:37:42;96822.72;;;15.86;100.00
19596;BME280;9945;46.010;8.946;2023-05-12T05:40:09;96826.56;;;15.84;99.45
19596;BME280;9945;46.010;8.946;2023-05-12T05:42:36;96826.28;;;15.72;99.30
19596;BME280;9945;46.010;8.946;2023-05-12T05:45:05;96833.59;;;15.77;99.63
19596;BME280;9945;46.010;8.946;2023-05-12T05:47:32;96836.25;;;15.77;100.00
19596;BME280;9945;46.010;8.946;2023-05-12T05:49:59;96838.25;;;15.75;100.00
19596;BME280;9945;46.010;8.946;2023-05-12T05:52:26;96842.97;;;15.79;100.00
19596;BME280;9945;46.010;8.946;2023-05-12T05:54:52;96844.22;;;15.83;99.44
19596;BME280;9945;46.010;8.946;2023-05-12T05:57:19;96847.50;;;15.85;100.00
19596;BME280;9945;46.010;8.946;2023-05-12T05:59:46;96846.38;;;15.73;99.34
19596;BME280;9945;46.010;8.946;2023-05-12T06:02:15;96844.59;;;15.59;100.00
19596;BME280;9945;46.010;8.946;2023-05-12T06:04:42;96847.56;;;15.35;100.00
19596;BME280;9945;46.010;8.946;2023-05-12T06:07:08;96852.91;;;15.41;100.00
19596;BME280;9945;46.010;8.946;2023-05-12T06:09:35;96843.78;;;15.23;100.00
19596;BME280;9945;46.010;8.946;2023-05-12T06:12:02;96849.63;;;15.18;100.00
19596;BME280;9945;46.010;8.946;2023-05-12T06:14:29;96849.06;;;15.23;100.00
19596;BME280;9945;46.010;8.946;2023-05-12T06:16:56;96856.81;;;15.09;100.00
19596;BME280;9945;46.010;8.946;2023-05-12T06:19:24;96852.00;;;15.13;100.00
19596;BME280;9945;46.010;8.946;2023-05-12T06:21:51;96851.44;;;15.18;100.00
19596;BME280;9945;46.010;8.946;2023-05-12T06:24:18;96847.75;;;15.33;100.00
19596;BME280;9945;46.010;8.946;2023-05-12T06:26:45;96849.41;;;15.34;100.00
19596;BME280;9945;46.010;8.946;2023-05-12T06:29:12;96852.03;;;14.98;100.00
19596;BME280;9945;46.010;8.946;2023-05-12T06:31:39;96863.63;;;15.19;100.00
19596;BME280;9945;46.010;8.946;2023-05-12T06:34:06;96861.53;;;15.29;100.00
19596;BME280;9945;46.010;8.946;2023-05-12T06:36:34;96861.66;;;15.57;99.14
19596;BME280;9945;46.010;8.946;2023-05-12T06:39:01;96862.34;;;15.50;99.87
19596;BME280;9945;46.010;8.946;2023-05-12T06:41:28;96863.16;;;15.51;100.00
19596;BME280;9945;46.010;8.946;2023-05-12T06:43:55;96863.06;;;15.59;98.99
19596;BME280;9945;46.010;8.946;2023-05-12T06:46:24;96862.34;;;15.86;97.43
19596;BME280;9945;46.010;8.946;2023-05-12T06:48:51;96869.78;;;16.04;97.88
19596;BME280;9945;46.010;8.946;2023-05-12T06:51:19;96866.97;;;16.06;97.54
19596;BME280;9945;46.010;8.946;2023-05-12T06:53:47;96866.53;;;16.02;98.96
19596;BME280;9945;46.010;8.946;2023-05-12T06:56:14;96865.72;;;16.02;95.43
19596;BME280;9945;46.010;8.946;2023-05-12T06:58:42;96862.94;;;16.10;95.35
19596;BME280;9945;46.010;8.946;2023-05-12T07:01:08;96862.22;;;16.22;95.11
19596;BME280;9945;46.010;8.946;2023-05-12T07:03:35;96864.22;;;16.20;94.48
19596;BME280;9945;46.010;8.946;2023-05-12T07:06:02;96860.09;;;16.11;92.44
19596;BME280;9945;46.010;8.946;2023-05-12T07:08:29;96861.09;;;16.10;93.71
19596;BME280;9945;46.010;8.946;2023-05-12T07:10:58;96862.97;;;16.16;93.83
19596;BME280;9945;46.010;8.946;2023-05-12T07:13:25;96866.56;;;16.09;92.66
19596;BME280;9945;46.010;8.946;2023-05-12T07:15:52;96875.50;;;15.65;96.42
19596;BME280;9945;46.010;8.946;2023-05-12T07:18:19;96873.50;;;15.31;98.23
19596;BME280;9945;46.010;8.946;2023-05-12T07:20:46;96871.19;;;15.22;100.00
19596;BME280;9945;46.010;8.946;2023-05-12T07:23:13;96875.34;;;15.31;100.00
19596;BME280;9945;46.010;8.946;2023-05-12T07:25:40;96872.88;;;15.29;100.00
19596;BME280;9945;46.010;8.946;2023-05-12T07:28:09;96875.47;;;15.44;100.00
19596;BME280;9945;46.010;8.946;2023-05-12T07:30:36;96869.22;;;15.66;97.87
19596;BME280;9945;46.010;8.946;2023-05-12T07:33:03;96874.47;;;15.81;98.45
19596;BME280;9945;46.010;8.946;2023-05-12T07:35:30;96872.84;;;15.80;99.43
19596;BME280;9945;46.010;8.946;2023-05-12T07:37:57;96867.72;;;16.00;98.87
19596;BME280;9945;46.010;8.946;2023-05-12T07:40:23;96860.19;;;15.75;99.99
19596;BME280;9945;46.010;8.946;2023-05-12T07:42:50;96860.88;;;16.05;96.58
19596;BME280;9945;46.010;8.946;2023-05-12T07:45:19;96855.50;;;16.20;94.22
19596;BME280;9945;46.010;8.946;2023-05-12T07:47:48;96868.78;;;16.05;97.03
19596;BME280;9945;46.010;8.946;2023-05-12T07:50:16;96863.34;;;15.85;94.96
19596;BME280;9945;46.010;8.946;2023-05-12T07:52:47;96866.28;;;15.76;92.67
19596;BME280;9945;46.010;8.946;2023-05-12T07:55:14;96859.59;;;15.73;92.55
19596;BME280;9945;46.010;8.946;2023-05-12T07:57:41;96866.06;;;15.71;91.10
19596;BME280;9945;46.010;8.946;2023-05-12T08:00:09;96867.09;;;15.40;96.67
19596;BME280;9945;46.010;8.946;2023-05-12T08:02:38;96856.19;;;15.43;96.22
19596;BME280;9945;46.010;8.946;2023-05-12T08:05:06;96861.00;;;15.76;92.22
19596;BME280;9945;46.010;8.946;2023-05-12T08:07:34;96870.56;;;15.98;94.09
19596;BME280;9945;46.010;8.946;2023-05-12T08:10:01;96871.25;;;16.07;92.46
19596;BME280;9945;46.010;8.946;2023-05-12T08:12:28;96866.47;;;15.96;92.46
19596;BME280;9945;46.010;8.946;2023-05-12T08:14:55;96860.94;;;15.69;94.88
19596;BME280;9945;46.010;8.946;2023-05-12T08:17:22;96869.47;;;15.14;97.68
19596;BME280;9945;46.010;8.946;2023-05-12T08:19:50;96871.53;;;15.19;99.95
19596;BME280;9945;46.010;8.946;2023-05-12T08:22:17;96874.59;;;15.37;100.00
19596;BME280;9945;46.010;8.946;2023-05-12T08:24:44;96879.81;;;15.30;100.00
19596;BME280;9945;46.010;8.946;2023-05-12T08:27:11;96875.03;;;15.55;100.00
19596;BME280;9945;46.010;8.946;2023-05-12T08:29:38;96877.38;;;15.50;100.00
19596;BME280;9945;46.010;8.946;2023-05-12T08:32:05;96875.97;;;15.69;99.23
19596;BME280;9945;46.010;8.946;2023-05-12T08:34:32;96877.94;;;15.45;99.35
19596;BME280;9945;46.010;8.946;2023-05-12T08:37:01;96874.50;;;15.66;99.51
19596;BME280;9945;46.010;8.946;2023-05-12T08:39:28;96876.16;;;15.67;100.00
19596;BME280;9945;46.010;8.946;2023-05-12T08:42:02;96875.97;;;15.69;100.00
19596;BME280;9945;46.010;8.946;2023-05-12T08:44:36;96884.31;;;15.94;100.00
19596;BME280;9945;46.010;8.946;2023-05-12T08:47:03;96883.56;;;16.00;97.33
19596;BME280;9945;46.010;8.946;2023-05-12T08:49:31;96879.13;;;16.28;98.63
19596;BME280;9945;46.010;8.946;2023-05-12T08:52:02;96884.81;;;16.04;99.58
19596;BME280;9945;46.010;8.946;2023-05-12T08:54:29;96885.03;;;16.30;96.87
19596;BME280;9945;46.010;8.946;2023-05-12T08:56:56;96891.94;;;16.59;90.66
19596;BME280;9945;46.010;8.946;2023-05-12T08:59:23;96896.56;;;16.78;90.25
19596;BME280;9945;46.010;8.946;2023-05-12T09:01:51;96893.59;;;16.94;91.52
19596;BME280;9945;46.010;8.946;2023-05-12T09:04:18;96901.19;;;17.04;89.70
19596;BME280;9945;46.010;8.946;2023-05-12T09:06:45;96889.63;;;17.18;89.07
19596;BME280;9945;46.010;8.946;2023-05-12T09:09:15;96898.03;;;17.28;85.04
19596;BME280;9945;46.010;8.946;2023-05-12T09:11:43;96895.31;;;17.09;87.36
19596;BME280;9945;46.010;8.946;2023-05-12T09:14:16;96897.19;;;17.21;80.93
19596;BME280;9945;46.010;8.946;2023-05-12T09:16:45;96896.66;;;16.91;86.76
19596;BME280;9945;46.010;8.946;2023-05-12T09:19:18;96902.19;;;16.69;89.05
19596;BME280;9945;46.010;8.946;2023-05-12T09:21:45;96904.53;;;16.85;90.56
19596;BME280;9945;46.010;8.946;2023-05-12T09:24:13;96895.66;;;16.92;91.38
19596;BME280;9945;46.010;8.946;2023-05-12T09:26:45;96900.22;;;17.18;87.26
19596;BME280;9945;46.010;8.946;2023-05-12T09:29:12;96902.69;;;17.20;88.73
19596;BME280;9945;46.010;8.946;2023-05-12T09:31:48;96908.72;;;17.00;87.97
19596;BME280;9945;46.010;8.946;2023-05-12T09:34:15;96900.88;;;16.86;88.81
19596;BME280;9945;46.010;8.946;2023-05-12T09:36:42;96902.66;;;16.72;88.31
19596;BME280;9945;46.010;8.946;2023-05-12T09:39:10;96904.38;;;16.58;90.15
19596;BME280;9945;46.010;8.946;2023-05-12T09:41:40;96897.19;;;16.52;91.87
19596;BME280;9945;46.010;8.946;2023-05-12T09:44:08;96899.09;;;16.58;91.72
19596;BME280;9945;46.010;8.946;2023-05-12T09:46:35;96905.63;;;16.62;91.97
19596;BME280;9945;46.010;8.946;2023-05-12T09:49:04;96899.06;;;16.86;85.94
19596;BME280;9945;46.010;8.946;2023-05-12T09:51:31;96898.28;;;16.92;87.35
19596;BME280;9945;46.010;8.946;2023-05-12T09:53:58;96901.72;;;16.93;87.71
19596;BME280;9945;46.010;8.946;2023-05-12T09:56:27;96899.66;;;16.82;85.89
19596;BME280;9945;46.010;8.946;2023-05-12T09:58:56;96895.94;;;16.76;88.61
19596;BME280;9945;46.010;8.946;2023-05-12T10:01:24;96896.97;;;16.75;89.60
19596;BME280;9945;46.010;8.946;2023-05-12T10:03:53;96902.56;;;16.93;85.13
19596;BME280;9945;46.010;8.946;2023-05-12T10:06:24;96897.56;;;17.12;85.06
19596;BME280;9945;46.010;8.946;2023-05-12T10:08:57;96898.00;;;17.15;84.56
19596;BME280;9945;46.010;8.946;2023-05-12T10:11:27;96894.94;;;17.18;87.88
19596;BME280;9945;46.010;8.946;2023-05-12T10:13:56;96898.84;;;17.22;87.93
19596;BME280;9945;46.010;8.946;2023-05-12T10:16:26;96898.00;;;17.15;85.46
19596;BME280;9945;46.010;8.946;2023-05-12T10:18:53;96903.75;;;17.25;81.27
19596;BME280;9945;46.010;8.946;2023-05-12T10:21:22;96910.03;;;17.18;81.84
19596;BME280;9945;46.010;8.946;2023-05-12T10:23:49;96911.22;;;17.15;81.82
19596;BME280;9945;46.010;8.946;2023-05-12T10:26:18;96909.59;;;17.14;84.75
19596;BME280;9945;46.010;8.946;2023-05-12T10:28:45;96913.41;;;16.71;90.55
19596;BME280;9945;46.010;8.946;2023-05-12T10:31:14;96909.91;;;16.63;93.13
19596;BME280;9945;46.010;8.946;2023-05-12T10:33:41;96909.81;;;16.29;97.70
19596;BME280;9945;46.010;8.946;2023-05-12T10:36:17;96908.09;;;16.15;98.34
19596;BME280;9945;46.010;8.946;2023-05-12T10:38:47;96910.88;;;16.07;96.07
19596;BME280;9945;46.010;8.946;2023-05-12T10:41:15;96903.44;;;16.45;91.59
19596;BME280;9945;46.010;8.946;2023-05-12T10:43:43;96901.97;;;16.63;93.46
19596;BME280;9945;46.010;8.946;2023-05-12T10:46:18;96909.88;;;16.36;97.56
19596;BME280;9945;46.010;8.946;2023-05-12T10:48:51;96909.59;;;16.24;98.07
19596;BME280;9945;46.010;8.946;2023-05-12T10:51:20;96908.22;;;16.35;99.86
19596;BME280;9945;46.010;8.946;2023-05-12T10:53:52;96900.38;;;16.41;99.50
19596;BME280;9945;46.010;8.946;2023-05-12T10:56:29;96902.31;;;16.60;98.83
19596;BME280;9945;46.010;8.946;2023-05-12T10:59:11;96905.53;;;16.49;98.79
19596;BME280;9945;46.010;8.946;2023-05-12T11:01:40;96903.81;;;16.97;93.61
19596;BME280;9945;46.010;8.946;2023-05-12T11:04:12;96908.88;;;17.33;95.60
19596;BME280;9945;46.010;8.946;2023-05-12T11:06:39;96917.56;;;17.75;90.83
19596;BME280;9945;46.010;8.946;2023-05-12T11:09:07;96904.56;;;18.00;88.59
19596;BME280;9945;46.010;8.946;2023-05-12T11:11:35;96897.25;;;18.02;85.45
19596;BME280;9945;46.010;8.946;2023-05-12T11:14:02;96906.88;;;17.49;80.04
19596;BME280;9945;46.010;8.946;2023-05-12T11:16:29;96904.50;;;17.13;80.51
19596;BME280;9945;46.010;8.946;2023-05-12T11:19:01;96910.50;;;17.34;86.19
19596;BME280;9945;46.010;8.946;2023-05-12T11:21:29;96903.41;;;17.55;85.82
19596;BME280;9945;46.010;8.946;2023-05-12T11:23:56;96912.00;;;17.57;86.94
19596;BME280;9945;46.010;8.946;2023-05-12T11:26:24;96908.63;;;17.28;88.09
19596;BME280;9945;46.010;8.946;2023-05-12T11:28:51;96909.94;;;17.05;87.33
19596;BME280;9945;46.010;8.946;2023-05-12T11:31:18;96903.66;;;17.12;90.95
19596;BME280;9945;46.010;8.946;2023-05-12T11:33:45;96907.59;;;17.29;84.78
19596;BME280;9945;46.010;8.946;2023-05-12T11:36:15;96908.06;;;17.46;84.37
19596;BME280;9945;46.010;8.946;2023-05-12T11:38:48;96905.47;;;17.05;86.60
19596;BME280;9945;46.010;8.946;2023-05-12T11:41:21;96907.59;;;17.29;88.19
19596;BME280;9945;46.010;8.946;2023-05-12T11:43:48;96905.53;;;17.18;90.65
19596;BME280;9945;46.010;8.946;2023-05-12T11:46:22;96910.28;;;16.95;85.48
19596;BME280;9945;46.010;8.946;2023-05-12T11:48:54;96899.63;;;16.75;89.37
19596;BME280;9945;46.010;8.946;2023-05-12T11:51:23;96901.84;;;16.78;93.22
19596;BME280;9945;46.010;8.946;2023-05-12T11:53:51;96902.13;;;16.90;94.54
19596;BME280;9945;46.010;8.946;2023-05-12T11:56:19;96901.03;;;17.19;92.47
19596;BME280;9945;46.010;8.946;2023-05-12T11:58:54;96901.31;;;17.30;88.07
19596;BME280;9945;46.010;8.946;2023-05-12T12:01:21;96899.75;;;17.43;90.44
19596;BME280;9945;46.010;8.946;2023-05-12T12:03:50;96901.38;;;17.50;93.20
19596;BME280;9945;46.010;8.946;2023-05-12T12:06:18;96908.44;;;17.36;96.98
19596;BME280;9945;46.010;8.946;2023-05-12T12:08:50;96900.47;;;17.23;90.68
19596;BME280;9945;46.010;8.946;2023-05-12T12:11:17;96902.81;;;17.05;88.46
19596;BME280;9945;46.010;8.946;2023-05-12T12:13:49;96910.50;;;17.34;86.03
19596;BME280;9945;46.010;8.946;2023-05-12T12:16:22;96905.44;;;17.46;88.11
19596;BME280;9945;46.010;8.946;2023-05-12T12:18:49;96906.63;;;17.37;88.58
19596;BME280;9945;46.010;8.946;2023-05-12T12:21:16;96905.25;;;17.48;86.62
19596;BME280;9945;46.010;8.946;2023-05-12T12:23:42;96901.19;;;17.52;88.92
19596;BME280;9945;46.010;8.946;2023-05-12T12:26:11;96893.31;;;17.65;92.94
19596;BME280;9945;46.010;8.946;2023-05-12T12:28:40;96895.72;;;17.60;96.61
19596;BME280;9945;46.010;8.946;2023-05-12T12:31:07;96894.94;;;17.66;97.71
19596;BME280;9945;46.010;8.946;2023-05-12T12:33:34;96893.50;;;17.70;95.54
19596;BME280;9945;46.010;8.946;2023-05-12T12:36:01;96897.13;;;17.56;93.05
19596;BME280;9945;46.010;8.946;2023-05-12T12:38:29;96899.94;;;17.41;89.27
19596;BME280;9945;46.010;8.946;2023-05-12T12:40:56;96897.44;;;17.26;90.91
19596;BME280;9945;46.010;8.946;2023-05-12T12:43:25;96892.00;;;17.41;88.67
19596;BME280;9945;46.010;8.946;2023-05-12T12:45:52;96894.53;;;17.15;90.95
19596;BME280;9945;46.010;8.946;2023-05-12T12:48:19;96900.09;;;17.26;90.49
19596;BME280;9945;46.010;8.946;2023-05-12T12:50:46;96894.53;;;17.15;94.63
19596;BME280;9945;46.010;8.946;2023-05-12T12:53:12;96887.00;;;17.18;97.85
19596;BME280;9945;46.010;8.946;2023-05-12T12:55:39;96886.56;;;17.08;100.00
19596;BME280;9945;46.010;8.946;2023-05-12T12:58:06;96887.00;;;17.18;100.00
19596;BME280;9945;46.010;8.946;2023-05-12T13:00:35;96888.34;;;17.49;98.61
19596;BME280;9945;46.010;8.946;2023-05-12T13:03:02;96885.38;;;17.71;95.70
19596;BME280;9945;46.010;8.946;2023-05-12T13:05:29;96882.13;;;17.83;94.74
19596;BME280;9945;46.010;8.946;2023-05-12T13:07:55;96884.56;;;17.71;98.43